sensor_id;sensor_type;location;lat;lon;timestamp;temperature;humidity
28374;DHT22;15616;40.148;-102.718;2022-07-30T00:01:19;25.30;46.30
28374;DHT22;15616;40.148;-102.718;2022-07-30T00:03:45;25.30;46.20
28374;DHT22;15616;40.148;-102.718;2022-07-30T00:06:11;25.30;46.30
28374;DHT22;15616;40.148;-102.718;2022-07-30T00:08:36;25.30;46.30
28374;DHT22;15616;40.148;-102.718;2022-07-30T00:11:02;25.30;46.30
28374;DHT22;15616;40.148;-102.718;2022-07-30T00:13:28;25.30;46.30
28374;DHT22;15616;40.148;-102.718;2022-07-30T00:15:54;25.20;47.00
28374;DHT22;15616;40.148;-102.718;2022-07-30T00:18:20;25.20;46.30
28374;DHT22;15616;40.148;-102.718;2022-07-30T00:20:46;25.20;46.40
28374;DHT22;15616;40.148;-102.718;2022-07-30T00:23:12;25.30;46.50
28374;DHT22;15616;40.148;-102.718;2022-07-30T00:25:38;25.20;46.50
28374;DHT22;15616;40.148;-102.718;2022-07-30T00:28:04;25.20;46.40
28374;DHT22;15616;40.148;-102.718;2022-07-30T00:30:30;25.20;46.50
28374;DHT22;15616;40.148;-102.718;2022-07-30T00:32:56;25.20;46.50
28374;DHT22;15616;40.148;-102.718;2022-07-30T00:35:22;25.20;46.50
28374;DHT22;15616;40.148;-102.718;2022-07-30T00:37:48;25.20;46.50
28374;DHT22;15616;40.148;-102.718;2022-07-30T00:40:14;25.20;46.60
28374;DHT22;15616;40.148;-102.718;2022-07-30T00:42:45;25.20;46.60
28374;DHT22;15616;40.148;-102.718;2022-07-30T00:45:13;25.20;46.50
28374;DHT22;15616;40.148;-102.718;2022-07-30T00:47:39;25.20;46.60
28374;DHT22;15616;40.148;-102.718;2022-07-30T00:50:07;25.20;46.60
28374;DHT22;15616;40.148;-102.718;2022-07-30T00:52:34;25.20;46.60
28374;DHT22;15616;40.148;-102.718;2022-07-30T00:55:01;25.20;46.60
28374;DHT22;15616;40.148;-102.718;2022-07-30T00:57:27;25.20;46.70
28374;DHT22;15616;40.148;-102.718;2022-07-30T00:59:53;25.20;46.70
28374;DHT22;15616;40.148;-102.718;2022-07-30T01:02:20;25.20;46.70
28374;DHT22;15616;40.148;-102.718;2022-07-30T01:04:46;25.20;46.70
28374;DHT22;15616;40.148;-102.718;2022-07-30T01:07:12;25.20;46.70
28374;DHT22;15616;40.148;-102.718;2022-07-30T01:09:38;25.20;46.70
28374;DHT22;15616;40.148;-102.718;2022-07-30T01:12:05;25.20;46.70
28374;DHT22;15616;40.148;-102.718;2022-07-30T01:14:34;25.20;46.70
28374;DHT22;15616;40.148;-102.718;2022-07-30T01:17:02;25.20;46.70
28374;DHT22;15616;40.148;-102.718;2022-07-30T01:19:36;25.20;46.70
28374;DHT22;15616;40.148;-102.718;2022-07-30T01:22:26;25.20;46.70
28374;DHT22;15616;40.148;-102.718;2022-07-30T01:28:00;25.20;46.80
28374;DHT22;15616;40.148;-102.718;2022-07-30T01:30:30;25.20;46.70
28374;DHT22;15616;40.148;-102.718;2022-07-30T01:32:57;25.20;46.80
28374;DHT22;15616;40.148;-102.718;2022-07-30T01:35:26;25.20;46.70
28374;DHT22;15616;40.148;-102.718;2022-07-30T01:37:54;25.20;47.40
28374;DHT22;15616;40.148;-102.718;2022-07-30T01:40:23;25.20;46.80
28374;DHT22;15616;40.148;-102.718;2022-07-30T01:42:51;25.20;46.70
28374;DHT22;15616;40.148;-102.718;2022-07-30T01:45:24;25.20;46.80
28374;DHT22;15616;40.148;-102.718;2022-07-30T01:47:52;25.20;46.80
28374;DHT22;15616;40.148;-102.718;2022-07-30T01:50:19;25.20;46.70
28374;DHT22;15616;40.148;-102.718;2022-07-30T01:52:48;25.20;46.80
28374;DHT22;15616;40.148;-102.718;2022-07-30T01:55:19;25.20;46.80
28374;DHT22;15616;40.148;-102.718;2022-07-30T01:57:47;25.20;46.80
28374;DHT22;15616;40.148;-102.718;2022-07-30T02:00:13;25.10;46.80
28374;DHT22;15616;40.148;-102.718;2022-07-30T02:02:40;25.10;46.80
28374;DHT22;15616;40.148;-102.718;2022-07-30T02:05:07;25.20;47.50
28374;DHT22;15616;40.148;-102.718;2022-07-30T02:07:44;25.20;46.90
28374;DHT22;15616;40.148;-102.718;2022-07-30T02:10:14;25.20;46.90
28374;DHT22;15616;40.148;-102.718;2022-07-30T02:12:47;25.20;46.90
28374;DHT22;15616;40.148;-102.718;2022-07-30T02:15:28;25.10;46.90
28374;DHT22;15616;40.148;-102.718;2022-07-30T02:18:12;25.10;46.90
28374;DHT22;15616;40.148;-102.718;2022-07-30T02:20:44;25.10;46.90
28374;DHT22;15616;40.148;-102.718;2022-07-30T02:23:14;25.10;47.00
28374;DHT22;15616;40.148;-102.718;2022-07-30T02:25:48;25.10;46.90
28374;DHT22;15616;40.148;-102.718;2022-07-30T02:28:16;25.10;47.00
28374;DHT22;15616;40.148;-102.718;2022-07-30T02:30:53;25.10;46.90
28374;DHT22;15616;40.148;-102.718;2022-07-30T02:33:23;25.10;46.90
28374;DHT22;15616;40.148;-102.718;2022-07-30T02:35:51;25.10;46.90
28374;DHT22;15616;40.148;-102.718;2022-07-30T02:38:19;25.10;47.00
28374;DHT22;15616;40.148;-102.718;2022-07-30T02:40:47;25.10;47.00
28374;DHT22;15616;40.148;-102.718;2022-07-30T02:43:14;25.10;47.10
28374;DHT22;15616;40.148;-102.718;2022-07-30T02:45:43;25.10;47.10
28374;DHT22;15616;40.148;-102.718;2022-07-30T02:48:13;25.10;47.00
28374;DHT22;15616;40.148;-102.718;2022-07-30T02:50:40;25.10;47.00
28374;DHT22;15616;40.148;-102.718;2022-07-30T02:53:10;25.10;47.00
28374;DHT22;15616;40.148;-102.718;2022-07-30T02:55:37;25.10;47.00
28374;DHT22;15616;40.148;-102.718;2022-07-30T02:58:06;25.10;47.00
28374;DHT22;15616;40.148;-102.718;2022-07-30T03:00:32;25.10;47.10
28374;DHT22;15616;40.148;-102.718;2022-07-30T03:02:59;25.00;47.10
28374;DHT22;15616;40.148;-102.718;2022-07-30T03:05:27;25.00;47.10
28374;DHT22;15616;40.148;-102.718;2022-07-30T03:07:54;25.00;47.10
28374;DHT22;15616;40.148;-102.718;2022-07-30T03:10:22;25.00;47.10
28374;DHT22;15616;40.148;-102.718;2022-07-30T03:12:49;25.10;47.10
28374;DHT22;15616;40.148;-102.718;2022-07-30T03:15:16;25.00;47.10
28374;DHT22;15616;40.148;-102.718;2022-07-30T03:17:44;25.00;47.10
28374;DHT22;15616;40.148;-102.718;2022-07-30T03:20:12;25.10;47.10
28374;DHT22;15616;40.148;-102.718;2022-07-30T03:22:45;25.00;47.10
28374;DHT22;15616;40.148;-102.718;2022-07-30T03:25:14;25.00;47.10
28374;DHT22;15616;40.148;-102.718;2022-07-30T03:27:41;25.00;47.10
28374;DHT22;15616;40.148;-102.718;2022-07-30T03:30:08;25.00;47.10
28374;DHT22;15616;40.148;-102.718;2022-07-30T03:32:34;25.00;47.20
28374;DHT22;15616;40.148;-102.718;2022-07-30T03:35:02;25.00;47.10
28374;DHT22;15616;40.148;-102.718;2022-07-30T03:37:29;25.00;47.10
28374;DHT22;15616;40.148;-102.718;2022-07-30T03:39:56;25.00;47.20
28374;DHT22;15616;40.148;-102.718;2022-07-30T03:42:24;25.10;47.20
28374;DHT22;15616;40.148;-102.718;2022-07-30T03:44:51;25.00;47.20
28374;DHT22;15616;40.148;-102.718;2022-07-30T03:47:19;25.00;47.20
28374;DHT22;15616;40.148;-102.718;2022-07-30T03:49:45;25.00;47.20
28374;DHT22;15616;40.148;-102.718;2022-07-30T03:52:12;25.00;47.20
28374;DHT22;15616;40.148;-102.718;2022-07-30T03:54:39;25.00;47.20
28374;DHT22;15616;40.148;-102.718;2022-07-30T03:57:06;25.00;47.20
28374;DHT22;15616;40.148;-102.718;2022-07-30T03:59:32;25.00;47.20
28374;DHT22;15616;40.148;-102.718;2022-07-30T04:02:02;25.00;47.30
28374;DHT22;15616;40.148;-102.718;2022-07-30T04:04:28;25.00;47.20
28374;DHT22;15616;40.148;-102.718;2022-07-30T04:06:56;25.00;47.30
28374;DHT22;15616;40.148;-102.718;2022-07-30T04:09:22;24.90;47.20
28374;DHT22;15616;40.148;-102.718;2022-07-30T04:11:48;24.90;47.20
28374;DHT22;15616;40.148;-102.718;2022-07-30T04:14:14;25.00;47.30
28374;DHT22;15616;40.148;-102.718;2022-07-30T04:16:50;25.00;47.30
28374;DHT22;15616;40.148;-102.718;2022-07-30T04:19:24;25.00;47.30
28374;DHT22;15616;40.148;-102.718;2022-07-30T04:21:53;25.00;47.30
28374;DHT22;15616;40.148;-102.718;2022-07-30T04:24:21;25.00;47.30
28374;DHT22;15616;40.148;-102.718;2022-07-30T04:26:49;24.90;47.30
28374;DHT22;15616;40.148;-102.718;2022-07-30T04:29:17;25.00;47.30
28374;DHT22;15616;40.148;-102.718;2022-07-30T04:31:44;25.00;47.30
28374;DHT22;15616;40.148;-102.718;2022-07-30T04:34:13;25.00;47.20
28374;DHT22;15616;40.148;-102.718;2022-07-30T04:36:41;25.00;47.20
28374;DHT22;15616;40.148;-102.718;2022-07-30T04:39:07;25.00;47.20
28374;DHT22;15616;40.148;-102.718;2022-07-30T04:41:33;25.00;47.20
28374;DHT22;15616;40.148;-102.718;2022-07-30T04:43:59;25.00;47.30
28374;DHT22;15616;40.148;-102.718;2022-07-30T04:46:25;25.00;47.20
28374;DHT22;15616;40.148;-102.718;2022-07-30T04:48:50;25.00;47.20
28374;DHT22;15616;40.148;-102.718;2022-07-30T04:51:27;25.00;47.20
28374;DHT22;15616;40.148;-102.718;2022-07-30T04:53:55;25.10;47.30
28374;DHT22;15616;40.148;-102.718;2022-07-30T04:56:22;25.00;47.20
28374;DHT22;15616;40.148;-102.718;2022-07-30T04:58:50;25.00;47.20
28374;DHT22;15616;40.148;-102.718;2022-07-30T05:01:25;25.00;47.20
28374;DHT22;15616;40.148;-102.718;2022-07-30T05:03:52;25.10;47.20
28374;DHT22;15616;40.148;-102.718;2022-07-30T05:06:21;25.00;47.20
28374;DHT22;15616;40.148;-102.718;2022-07-30T05:08:48;25.10;47.20
28374;DHT22;15616;40.148;-102.718;2022-07-30T05:11:15;25.10;47.20
28374;DHT22;15616;40.148;-102.718;2022-07-30T05:13:43;25.10;47.10
28374;DHT22;15616;40.148;-102.718;2022-07-30T05:16:09;25.10;47.10
28374;DHT22;15616;40.148;-102.718;2022-07-30T05:18:36;25.10;47.00
28374;DHT22;15616;40.148;-102.718;2022-07-30T05:21:03;25.10;47.00
28374;DHT22;15616;40.148;-102.718;2022-07-30T05:23:29;25.10;47.30
28374;DHT22;15616;40.148;-102.718;2022-07-30T05:25:55;25.10;47.10
28374;DHT22;15616;40.148;-102.718;2022-07-30T05:28:21;25.00;47.10
28374;DHT22;15616;40.148;-102.718;2022-07-30T05:30:48;25.00;47.20
28374;DHT22;15616;40.148;-102.718;2022-07-30T05:33:14;25.10;47.20
28374;DHT22;15616;40.148;-102.718;2022-07-30T05:35:40;25.10;47.30
28374;DHT22;15616;40.148;-102.718;2022-07-30T05:38:06;25.10;47.30
28374;DHT22;15616;40.148;-102.718;2022-07-30T05:40:32;25.00;47.30
28374;DHT22;15616;40.148;-102.718;2022-07-30T05:42:58;25.10;47.40
28374;DHT22;15616;40.148;-102.718;2022-07-30T05:45:24;25.00;47.30
28374;DHT22;15616;40.148;-102.718;2022-07-30T05:47:50;25.00;47.40
28374;DHT22;15616;40.148;-102.718;2022-07-30T05:50:15;25.00;47.40
28374;DHT22;15616;40.148;-102.718;2022-07-30T05:52:41;25.00;47.50
28374;DHT22;15616;40.148;-102.718;2022-07-30T05:55:08;25.00;47.50
28374;DHT22;15616;40.148;-102.718;2022-07-30T05:57:35;25.00;47.50
28374;DHT22;15616;40.148;-102.718;2022-07-30T06:00:03;24.90;47.60
28374;DHT22;15616;40.148;-102.718;2022-07-30T06:02:30;24.90;47.60
28374;DHT22;15616;40.148;-102.718;2022-07-30T06:04:56;25.00;47.60
28374;DHT22;15616;40.148;-102.718;2022-07-30T06:07:22;24.90;47.50
28374;DHT22;15616;40.148;-102.718;2022-07-30T06:09:48;24.90;47.50
28374;DHT22;15616;40.148;-102.718;2022-07-30T06:12:14;25.00;47.60
28374;DHT22;15616;40.148;-102.718;2022-07-30T06:14:40;24.90;47.60
28374;DHT22;15616;40.148;-102.718;2022-07-30T06:17:07;25.00;47.60
28374;DHT22;15616;40.148;-102.718;2022-07-30T06:19:33;24.90;47.50
28374;DHT22;15616;40.148;-102.718;2022-07-30T06:21:59;24.90;47.50
28374;DHT22;15616;40.148;-102.718;2022-07-30T06:24:24;24.90;47.50
28374;DHT22;15616;40.148;-102.718;2022-07-30T06:26:50;24.90;47.50
28374;DHT22;15616;40.148;-102.718;2022-07-30T06:29:16;24.90;47.50
28374;DHT22;15616;40.148;-102.718;2022-07-30T06:31:42;24.90;47.50
28374;DHT22;15616;40.148;-102.718;2022-07-30T06:34:08;24.90;47.50
28374;DHT22;15616;40.148;-102.718;2022-07-30T06:36:34;24.90;47.50
28374;DHT22;15616;40.148;-102.718;2022-07-30T06:39:00;25.00;47.50
28374;DHT22;15616;40.148;-102.718;2022-07-30T06:41:26;25.00;47.50
28374;DHT22;15616;40.148;-102.718;2022-07-30T06:43:52;25.00;47.50
28374;DHT22;15616;40.148;-102.718;2022-07-30T06:46:18;25.00;47.40
28374;DHT22;15616;40.148;-102.718;2022-07-30T06:48:43;25.00;47.40
28374;DHT22;15616;40.148;-102.718;2022-07-30T06:51:09;25.00;47.40
28374;DHT22;15616;40.148;-102.718;2022-07-30T06:53:35;25.00;47.40
28374;DHT22;15616;40.148;-102.718;2022-07-30T06:56:01;25.00;47.40
28374;DHT22;15616;40.148;-102.718;2022-07-30T06:58:27;25.00;47.40
28374;DHT22;15616;40.148;-102.718;2022-07-30T07:00:54;25.00;47.40
28374;DHT22;15616;40.148;-102.718;2022-07-30T07:03:19;25.00;47.40
28374;DHT22;15616;40.148;-102.718;2022-07-30T07:05:46;25.00;47.40
28374;DHT22;15616;40.148;-102.718;2022-07-30T07:08:12;25.00;47.40
28374;DHT22;15616;40.148;-102.718;2022-07-30T07:10:37;25.10;47.50
28374;DHT22;15616;40.148;-102.718;2022-07-30T07:13:03;25.10;47.40
28374;DHT22;15616;40.148;-102.718;2022-07-30T07:15:29;25.10;47.50
28374;DHT22;15616;40.148;-102.718;2022-07-30T07:17:55;25.00;47.40
28374;DHT22;15616;40.148;-102.718;2022-07-30T07:20:21;25.10;47.40
28374;DHT22;15616;40.148;-102.718;2022-07-30T07:22:47;25.10;48.10
28374;DHT22;15616;40.148;-102.718;2022-07-30T07:25:13;25.10;47.40
28374;DHT22;15616;40.148;-102.718;2022-07-30T07:27:39;25.10;47.40
28374;DHT22;15616;40.148;-102.718;2022-07-30T07:30:06;25.10;47.40
28374;DHT22;15616;40.148;-102.718;2022-07-30T07:32:33;25.10;47.40
28374;DHT22;15616;40.148;-102.718;2022-07-30T07:34:59;25.10;47.40
28374;DHT22;15616;40.148;-102.718;2022-07-30T07:37:24;25.10;47.30
28374;DHT22;15616;40.148;-102.718;2022-07-30T07:39:50;25.10;47.30
28374;DHT22;15616;40.148;-102.718;2022-07-30T07:42:16;25.10;47.20
28374;DHT22;15616;40.148;-102.718;2022-07-30T07:44:42;25.10;47.20
28374;DHT22;15616;40.148;-102.718;2022-07-30T07:47:08;25.10;47.20
28374;DHT22;15616;40.148;-102.718;2022-07-30T07:49:34;25.10;47.20
28374;DHT22;15616;40.148;-102.718;2022-07-30T07:52:00;25.10;47.20
28374;DHT22;15616;40.148;-102.718;2022-07-30T07:54:26;25.10;47.20
28374;DHT22;15616;40.148;-102.718;2022-07-30T07:56:52;25.10;47.20
28374;DHT22;15616;40.148;-102.718;2022-07-30T07:59:20;25.10;47.20
28374;DHT22;15616;40.148;-102.718;2022-07-30T08:01:46;25.10;47.20
28374;DHT22;15616;40.148;-102.718;2022-07-30T08:04:12;25.20;47.20
28374;DHT22;15616;40.148;-102.718;2022-07-30T08:06:38;25.20;47.10
28374;DHT22;15616;40.148;-102.718;2022-07-30T08:09:04;25.20;47.10
28374;DHT22;15616;40.148;-102.718;2022-07-30T08:11:30;25.20;47.20
28374;DHT22;15616;40.148;-102.718;2022-07-30T08:13:56;25.20;47.20
28374;DHT22;15616;40.148;-102.718;2022-07-30T08:16:22;25.20;47.10
28374;DHT22;15616;40.148;-102.718;2022-07-30T08:18:48;25.20;47.10
28374;DHT22;15616;40.148;-102.718;2022-07-30T08:21:14;25.20;47.20
28374;DHT22;15616;40.148;-102.718;2022-07-30T08:23:40;25.20;47.10
28374;DHT22;15616;40.148;-102.718;2022-07-30T08:26:06;25.20;47.10
28374;DHT22;15616;40.148;-102.718;2022-07-30T08:28:34;25.20;47.00
28374;DHT22;15616;40.148;-102.718;2022-07-30T08:30:59;25.20;47.00
28374;DHT22;15616;40.148;-102.718;2022-07-30T08:33:25;25.30;47.00
28374;DHT22;15616;40.148;-102.718;2022-07-30T08:35:51;25.30;47.00
28374;DHT22;15616;40.148;-102.718;2022-07-30T08:38:17;25.20;46.90
28374;DHT22;15616;40.148;-102.718;2022-07-30T08:40:43;25.30;46.90
28374;DHT22;15616;40.148;-102.718;2022-07-30T08:43:09;25.30;46.90
28374;DHT22;15616;40.148;-102.718;2022-07-30T08:45:36;25.30;47.00
28374;DHT22;15616;40.148;-102.718;2022-07-30T08:48:07;25.30;46.90
28374;DHT22;15616;40.148;-102.718;2022-07-30T08:50:33;25.30;46.90
28374;DHT22;15616;40.148;-102.718;2022-07-30T08:53:00;25.30;46.90
28374;DHT22;15616;40.148;-102.718;2022-07-30T08:55:27;25.30;46.90
28374;DHT22;15616;40.148;-102.718;2022-07-30T08:57:53;25.30;46.80
28374;DHT22;15616;40.148;-102.718;2022-07-30T09:00:19;25.30;46.80
28374;DHT22;15616;40.148;-102.718;2022-07-30T09:02:46;25.30;46.80
28374;DHT22;15616;40.148;-102.718;2022-07-30T09:05:12;25.30;46.90
28374;DHT22;15616;40.148;-102.718;2022-07-30T09:07:39;25.30;46.80
28374;DHT22;15616;40.148;-102.718;2022-07-30T09:10:07;25.30;46.80
28374;DHT22;15616;40.148;-102.718;2022-07-30T09:12:43;25.30;46.80
28374;DHT22;15616;40.148;-102.718;2022-07-30T09:15:14;25.30;46.70
28374;DHT22;15616;40.148;-102.718;2022-07-30T09:17:48;25.30;46.70
28374;DHT22;15616;40.148;-102.718;2022-07-30T09:20:15;25.40;46.80
28374;DHT22;15616;40.148;-102.718;2022-07-30T09:22:43;25.40;46.80
28374;DHT22;15616;40.148;-102.718;2022-07-30T09:25:09;25.40;46.80
28374;DHT22;15616;40.148;-102.718;2022-07-30T09:27:46;25.40;46.70
28374;DHT22;15616;40.148;-102.718;2022-07-30T09:30:14;25.40;46.70
28374;DHT22;15616;40.148;-102.718;2022-07-30T09:35:14;25.40;46.70
28374;DHT22;15616;40.148;-102.718;2022-07-30T09:37:40;25.40;46.80
28374;DHT22;15616;40.148;-102.718;2022-07-30T09:40:14;25.40;46.70
28374;DHT22;15616;40.148;-102.718;2022-07-30T09:42:41;25.40;46.70
28374;DHT22;15616;40.148;-102.718;2022-07-30T09:45:12;25.40;46.70
28374;DHT22;15616;40.148;-102.718;2022-07-30T09:47:43;25.40;46.60
28374;DHT22;15616;40.148;-102.718;2022-07-30T09:50:12;25.40;46.60
28374;DHT22;15616;40.148;-102.718;2022-07-30T09:52:40;25.40;46.60
28374;DHT22;15616;40.148;-102.718;2022-07-30T09:55:07;25.40;46.60
28374;DHT22;15616;40.148;-102.718;2022-07-30T09:57:34;25.40;46.60
28374;DHT22;15616;40.148;-102.718;2022-07-30T10:00:20;25.50;46.60
28374;DHT22;15616;40.148;-102.718;2022-07-30T10:02:47;25.50;46.50
28374;DHT22;15616;40.148;-102.718;2022-07-30T10:05:16;25.50;46.60
28374;DHT22;15616;40.148;-102.718;2022-07-30T10:07:56;25.50;46.50
28374;DHT22;15616;40.148;-102.718;2022-07-30T10:10:27;25.50;46.50
28374;DHT22;15616;40.148;-102.718;2022-07-30T10:13:00;25.50;46.50
28374;DHT22;15616;40.148;-102.718;2022-07-30T10:15:31;25.50;46.50
28374;DHT22;15616;40.148;-102.718;2022-07-30T10:17:58;25.50;46.40
28374;DHT22;15616;40.148;-102.718;2022-07-30T10:20:25;25.50;46.40
28374;DHT22;15616;40.148;-102.718;2022-07-30T10:22:51;25.50;46.40
28374;DHT22;15616;40.148;-102.718;2022-07-30T10:25:22;25.50;46.40
28374;DHT22;15616;40.148;-102.718;2022-07-30T10:27:49;25.50;46.40
28374;DHT22;15616;40.148;-102.718;2022-07-30T10:30:15;25.50;46.40
28374;DHT22;15616;40.148;-102.718;2022-07-30T10:32:43;25.60;46.40
28374;DHT22;15616;40.148;-102.718;2022-07-30T10:35:10;25.60;46.40
28374;DHT22;15616;40.148;-102.718;2022-07-30T10:37:43;25.60;46.40
28374;DHT22;15616;40.148;-102.718;2022-07-30T10:40:28;25.60;46.30
28374;DHT22;15616;40.148;-102.718;2022-07-30T10:48:48;25.60;46.40
28374;DHT22;15616;40.148;-102.718;2022-07-30T10:51:15;25.60;47.10
28374;DHT22;15616;40.148;-102.718;2022-07-30T10:53:43;25.60;46.30
28374;DHT22;15616;40.148;-102.718;2022-07-30T10:56:16;25.60;46.30
28374;DHT22;15616;40.148;-102.718;2022-07-30T11:01:22;25.60;46.30
28374;DHT22;15616;40.148;-102.718;2022-07-30T11:04:23;25.60;46.30
28374;DHT22;15616;40.148;-102.718;2022-07-30T11:06:50;25.60;46.20
28374;DHT22;15616;40.148;-102.718;2022-07-30T11:09:39;25.60;46.30
28374;DHT22;15616;40.148;-102.718;2022-07-30T11:12:06;25.60;46.20
28374;DHT22;15616;40.148;-102.718;2022-07-30T11:17:15;25.70;46.30
28374;DHT22;15616;40.148;-102.718;2022-07-30T11:20:08;25.60;46.20
28374;DHT22;15616;40.148;-102.718;2022-07-30T11:22:36;25.70;46.90
28374;DHT22;15616;40.148;-102.718;2022-07-30T11:25:06;25.70;46.30
28374;DHT22;15616;40.148;-102.718;2022-07-30T11:35:43;25.70;46.10
28374;DHT22;15616;40.148;-102.718;2022-07-30T11:38:49;25.70;46.30
28374;DHT22;15616;40.148;-102.718;2022-07-30T11:41:15;25.70;46.10
28374;DHT22;15616;40.148;-102.718;2022-07-30T11:43:41;25.70;46.20
28374;DHT22;15616;40.148;-102.718;2022-07-30T11:46:16;25.70;46.20
28374;DHT22;15616;40.148;-102.718;2022-07-30T11:49:03;25.70;46.10
28374;DHT22;15616;40.148;-102.718;2022-07-30T11:51:45;25.80;46.20
28374;DHT22;15616;40.148;-102.718;2022-07-30T11:54:12;25.70;46.10
28374;DHT22;15616;40.148;-102.718;2022-07-30T11:57:07;25.70;46.10
28374;DHT22;15616;40.148;-102.718;2022-07-30T11:59:52;25.80;46.10
28374;DHT22;15616;40.148;-102.718;2022-07-30T12:02:18;25.70;46.10
28374;DHT22;15616;40.148;-102.718;2022-07-30T12:04:50;25.70;46.10
28374;DHT22;15616;40.148;-102.718;2022-07-30T12:07:24;25.70;46.10
28374;DHT22;15616;40.148;-102.718;2022-07-30T12:09:50;25.80;46.20
28374;DHT22;15616;40.148;-102.718;2022-07-30T12:12:22;25.70;46.10
28374;DHT22;15616;40.148;-102.718;2022-07-30T12:14:49;25.80;46.20
28374;DHT22;15616;40.148;-102.718;2022-07-30T12:17:16;25.80;46.10
28374;DHT22;15616;40.148;-102.718;2022-07-30T12:19:45;25.80;46.10
28374;DHT22;15616;40.148;-102.718;2022-07-30T12:22:12;25.80;46.20
28374;DHT22;15616;40.148;-102.718;2022-07-30T12:24:38;25.80;46.10
28374;DHT22;15616;40.148;-102.718;2022-07-30T12:27:05;25.80;46.10
28374;DHT22;15616;40.148;-102.718;2022-07-30T12:29:35;25.80;46.10
28374;DHT22;15616;40.148;-102.718;2022-07-30T12:32:01;25.80;46.10
28374;DHT22;15616;40.148;-102.718;2022-07-30T12:34:27;25.80;46.10
28374;DHT22;15616;40.148;-102.718;2022-07-30T12:36:54;25.80;46.10
28374;DHT22;15616;40.148;-102.718;2022-07-30T12:39:24;25.80;46.10
28374;DHT22;15616;40.148;-102.718;2022-07-30T12:41:52;25.80;46.00
28374;DHT22;15616;40.148;-102.718;2022-07-30T12:44:34;25.80;46.00
28374;DHT22;15616;40.148;-102.718;2022-07-30T12:47:01;25.80;46.00
28374;DHT22;15616;40.148;-102.718;2022-07-30T12:49:28;25.80;46.00
28374;DHT22;15616;40.148;-102.718;2022-07-30T12:51:55;25.80;46.00
28374;DHT22;15616;40.148;-102.718;2022-07-30T12:54:20;25.80;46.00
28374;DHT22;15616;40.148;-102.718;2022-07-30T12:57:05;25.80;46.00
28374;DHT22;15616;40.148;-102.718;2022-07-30T12:59:31;25.90;45.90
28374;DHT22;15616;40.148;-102.718;2022-07-30T13:01:58;25.80;46.00
28374;DHT22;15616;40.148;-102.718;2022-07-30T13:04:25;25.80;45.90
28374;DHT22;15616;40.148;-102.718;2022-07-30T13:07:09;25.90;45.90
28374;DHT22;15616;40.148;-102.718;2022-07-30T13:09:36;25.90;45.90
28374;DHT22;15616;40.148;-102.718;2022-07-30T13:12:02;25.90;45.90
28374;DHT22;15616;40.148;-102.718;2022-07-30T13:14:28;25.90;45.90
28374;DHT22;15616;40.148;-102.718;2022-07-30T13:16:55;25.90;45.80
28374;DHT22;15616;40.148;-102.718;2022-07-30T13:19:23;25.90;45.80
28374;DHT22;15616;40.148;-102.718;2022-07-30T13:21:50;25.90;45.80
28374;DHT22;15616;40.148;-102.718;2022-07-30T13:24:17;25.90;45.80
28374;DHT22;15616;40.148;-102.718;2022-07-30T13:26:43;25.90;45.70
28374;DHT22;15616;40.148;-102.718;2022-07-30T13:29:08;25.90;45.70
28374;DHT22;15616;40.148;-102.718;2022-07-30T13:31:35;25.90;45.70
28374;DHT22;15616;40.148;-102.718;2022-07-30T13:34:01;25.90;45.70
28374;DHT22;15616;40.148;-102.718;2022-07-30T13:36:27;25.90;45.70
28374;DHT22;15616;40.148;-102.718;2022-07-30T13:38:53;25.90;45.70
28374;DHT22;15616;40.148;-102.718;2022-07-30T13:41:19;25.90;45.70
28374;DHT22;15616;40.148;-102.718;2022-07-30T13:43:45;25.90;45.70
28374;DHT22;15616;40.148;-102.718;2022-07-30T13:46:11;25.90;45.70
28374;DHT22;15616;40.148;-102.718;2022-07-30T13:48:37;25.90;45.70
28374;DHT22;15616;40.148;-102.718;2022-07-30T13:51:05;25.90;45.60
28374;DHT22;15616;40.148;-102.718;2022-07-30T13:53:31;26.00;45.70
28374;DHT22;15616;40.148;-102.718;2022-07-30T13:55:57;25.90;45.60
28374;DHT22;15616;40.148;-102.718;2022-07-30T13:58:26;26.00;45.70
28374;DHT22;15616;40.148;-102.718;2022-07-30T14:00:52;26.00;45.70
28374;DHT22;15616;40.148;-102.718;2022-07-30T14:03:18;26.00;45.70
28374;DHT22;15616;40.148;-102.718;2022-07-30T14:05:44;26.00;45.70
28374;DHT22;15616;40.148;-102.718;2022-07-30T14:08:10;26.00;45.70
28374;DHT22;15616;40.148;-102.718;2022-07-30T14:10:37;26.00;45.80
28374;DHT22;15616;40.148;-102.718;2022-07-30T14:13:06;25.90;45.60
28374;DHT22;15616;40.148;-102.718;2022-07-30T14:15:32;26.00;45.70
28374;DHT22;15616;40.148;-102.718;2022-07-30T14:17:59;26.00;45.60
28374;DHT22;15616;40.148;-102.718;2022-07-30T14:20:25;26.00;45.60
28374;DHT22;15616;40.148;-102.718;2022-07-30T14:22:52;26.00;45.70
28374;DHT22;15616;40.148;-102.718;2022-07-30T14:25:18;26.00;45.70
28374;DHT22;15616;40.148;-102.718;2022-07-30T14:27:44;26.00;45.60
28374;DHT22;15616;40.148;-102.718;2022-07-30T14:30:11;26.00;45.70
28374;DHT22;15616;40.148;-102.718;2022-07-30T14:32:38;26.00;45.60
28374;DHT22;15616;40.148;-102.718;2022-07-30T14:35:05;26.00;45.60
28374;DHT22;15616;40.148;-102.718;2022-07-30T14:37:34;26.00;45.60
28374;DHT22;15616;40.148;-102.718;2022-07-30T14:40:00;26.00;45.60
28374;DHT22;15616;40.148;-102.718;2022-07-30T14:42:26;26.00;45.50
28374;DHT22;15616;40.148;-102.718;2022-07-30T14:44:52;26.10;45.50
28374;DHT22;15616;40.148;-102.718;2022-07-30T14:47:18;26.10;45.50
28374;DHT22;15616;40.148;-102.718;2022-07-30T14:49:44;26.10;45.40
28374;DHT22;15616;40.148;-102.718;2022-07-30T14:52:11;26.10;45.40
28374;DHT22;15616;40.148;-102.718;2022-07-30T14:54:37;26.10;45.40
28374;DHT22;15616;40.148;-102.718;2022-07-30T14:57:03;26.10;45.40
28374;DHT22;15616;40.148;-102.718;2022-07-30T14:59:29;26.10;45.40
28374;DHT22;15616;40.148;-102.718;2022-07-30T15:01:55;26.10;45.50
28374;DHT22;15616;40.148;-102.718;2022-07-30T15:04:22;26.10;45.50
28374;DHT22;15616;40.148;-102.718;2022-07-30T15:06:48;26.10;45.50
28374;DHT22;15616;40.148;-102.718;2022-07-30T15:09:14;26.10;45.50
28374;DHT22;15616;40.148;-102.718;2022-07-30T15:11:40;26.00;45.40
28374;DHT22;15616;40.148;-102.718;2022-07-30T15:14:06;26.10;45.60
28374;DHT22;15616;40.148;-102.718;2022-07-30T15:16:32;26.10;45.50
28374;DHT22;15616;40.148;-102.718;2022-07-30T15:18:57;26.10;45.60